sensor_id;sensor_type;location;lat;lon;timestamp;temperature;humidity
2002;DHT22;1003;48.002;7.788;2023-08-30T00:01:12;13.80;99.90
2002;DHT22;1003;48.002;7.788;2023-08-30T00:03:40;13.70;99.90
2002;DHT22;1003;48.002;7.788;2023-08-30T00:06:08;13.70;99.90
2002;DHT22;1003;48.002;7.788;2023-08-30T00:08:35;13.70;99.90
2002;DHT22;1003;48.002;7.788;2023-08-30T00:11:02;13.60;99.90
2002;DHT22;1003;48.002;7.788;2023-08-30T00:13:30;13.60;99.90
2002;DHT22;1003;48.002;7.788;2023-08-30T00:15:57;13.60;99.90
2002;DHT22;1003;48.002;7.788;2023-08-30T00:18:24;13.50;99.90
2002;DHT22;1003;48.002;7.788;2023-08-30T00:20:53;13.50;99.90
2002;DHT22;1003;48.002;7.788;2023-08-30T00:23:20;13.40;99.90
2002;DHT22;1003;48.002;7.788;2023-08-30T00:25:47;13.50;99.90
2002;DHT22;1003;48.002;7.788;2023-08-30T00:28:14;13.50;99.90
2002;DHT22;1003;48.002;7.788;2023-08-30T00:30:43;13.40;99.90
2002;DHT22;1003;48.002;7.788;2023-08-30T00:33:10;13.40;99.90
2002;DHT22;1003;48.002;7.788;2023-08-30T00:35:37;13.40;99.90
2002;DHT22;1003;48.002;7.788;2023-08-30T00:38:06;13.30;99.90
2002;DHT22;1003;48.002;7.788;2023-08-30T00:40:38;13.30;99.90
2002;DHT22;1003;48.002;7.788;2023-08-30T00:43:06;13.20;99.90
2002;DHT22;1003;48.002;7.788;2023-08-30T00:45:33;13.20;99.90
2002;DHT22;1003;48.002;7.788;2023-08-30T00:48:04;13.20;99.90
2002;DHT22;1003;48.002;7.788;2023-08-30T00:50:32;13.10;99.90
2002;DHT22;1003;48.002;7.788;2023-08-30T00:53:00;13.10;99.90
2002;DHT22;1003;48.002;7.788;2023-08-30T00:55:32;13.10;99.90
2002;DHT22;1003;48.002;7.788;2023-08-30T00:58:00;13.10;99.90
2002;DHT22;1003;48.002;7.788;2023-08-30T01:00:27;13.10;99.90
2002;DHT22;1003;48.002;7.788;2023-08-30T01:02:55;13.10;99.90
2002;DHT22;1003;48.002;7.788;2023-08-30T01:05:22;13.00;99.90
2002;DHT22;1003;48.002;7.788;2023-08-30T01:07:50;13.10;99.90
2002;DHT22;1003;48.002;7.788;2023-08-30T01:10:18;13.00;99.90
2002;DHT22;1003;48.002;7.788;2023-08-30T01:12:59;13.00;99.90
2002;DHT22;1003;48.002;7.788;2023-08-30T01:15:34;13.00;99.90
2002;DHT22;1003;48.002;7.788;2023-08-30T01:18:02;12.90;99.90
2002;DHT22;1003;48.002;7.788;2023-08-30T01:20:35;12.90;99.90
2002;DHT22;1003;48.002;7.788;2023-08-30T01:23:06;12.90;99.90
2002;DHT22;1003;48.002;7.788;2023-08-30T01:25:48;12.90;99.90
2002;DHT22;1003;48.002;7.788;2023-08-30T01:28:27;12.80;99.90
2002;DHT22;1003;48.002;7.788;2023-08-30T01:30:57;12.80;99.90
2002;DHT22;1003;48.002;7.788;2023-08-30T01:33:26;12.70;99.90
2002;DHT22;1003;48.002;7.788;2023-08-30T01:35:55;12.80;99.90
2002;DHT22;1003;48.002;7.788;2023-08-30T01:38:23;12.70;99.90
2002;DHT22;1003;48.002;7.788;2023-08-30T01:40:53;12.70;99.90
2002;DHT22;1003;48.002;7.788;2023-08-30T01:43:25;12.70;99.90
2002;DHT22;1003;48.002;7.788;2023-08-30T01:45:55;12.70;99.90
2002;DHT22;1003;48.002;7.788;2023-08-30T01:48:23;12.60;99.90
2002;DHT22;1003;48.002;7.788;2023-08-30T01:50:52;12.60;99.90
2002;DHT22;1003;48.002;7.788;2023-08-30T01:53:24;12.60;99.90
2002;DHT22;1003;48.002;7.788;2023-08-30T01:55:52;12.60;99.90
2002;DHT22;1003;48.002;7.788;2023-08-30T01:58:19;12.60;99.90
2002;DHT22;1003;48.002;7.788;2023-08-30T02:00:48;12.50;99.90
2002;DHT22;1003;48.002;7.788;2023-08-30T02:03:15;12.60;99.90
2002;DHT22;1003;48.002;7.788;2023-08-30T02:05:51;12.60;99.90
2002;DHT22;1003;48.002;7.788;2023-08-30T02:08:26;12.50;99.90
2002;DHT22;1003;48.002;7.788;2023-08-30T02:11:07;12.60;99.90
2002;DHT22;1003;48.002;7.788;2023-08-30T02:13:38;12.60;99.90
2002;DHT22;1003;48.002;7.788;2023-08-30T02:16:08;12.50;99.90
2002;DHT22;1003;48.002;7.788;2023-08-30T02:18:37;12.50;99.90
2002;DHT22;1003;48.002;7.788;2023-08-30T02:21:04;12.50;99.90
2002;DHT22;1003;48.002;7.788;2023-08-30T02:23:32;12.50;99.90
2002;DHT22;1003;48.002;7.788;2023-08-30T02:25:59;12.50;99.90
2002;DHT22;1003;48.002;7.788;2023-08-30T02:28:28;12.40;99.90
2002;DHT22;1003;48.002;7.788;2023-08-30T02:30:55;12.40;99.90
2002;DHT22;1003;48.002;7.788;2023-08-30T02:33:24;12.40;99.90
2002;DHT22;1003;48.002;7.788;2023-08-30T02:35:51;12.40;99.90
2002;DHT22;1003;48.002;7.788;2023-08-30T02:38:19;12.40;99.90
2002;DHT22;1003;48.002;7.788;2023-08-30T02:40:46;12.40;99.90
2002;DHT22;1003;48.002;7.788;2023-08-30T02:43:13;12.40;99.90
2002;DHT22;1003;48.002;7.788;2023-08-30T02:45:40;12.40;99.90
2002;DHT22;1003;48.002;7.788;2023-08-30T02:48:07;12.40;99.90
2002;DHT22;1003;48.002;7.788;2023-08-30T02:50:36;12.40;99.90
2002;DHT22;1003;48.002;7.788;2023-08-30T02:53:03;12.40;99.90
2002;DHT22;1003;48.002;7.788;2023-08-30T02:55:31;12.40;99.90
2002;DHT22;1003;48.002;7.788;2023-08-30T02:57:58;12.40;99.90
2002;DHT22;1003;48.002;7.788;2023-08-30T03:00:25;12.40;99.90
2002;DHT22;1003;48.002;7.788;2023-08-30T03:02:52;12.40;99.90
2002;DHT22;1003;48.002;7.788;2023-08-30T03:05:19;12.40;99.90
2002;DHT22;1003;48.002;7.788;2023-08-30T03:07:47;12.30;99.90
2002;DHT22;1003;48.002;7.788;2023-08-30T03:10:14;12.30;99.90
2002;DHT22;1003;48.002;7.788;2023-08-30T03:12:42;12.30;99.90
2002;DHT22;1003;48.002;7.788;2023-08-30T03:15:09;12.30;99.90
2002;DHT22;1003;48.002;7.788;2023-08-30T03:17:37;12.30;99.90
2002;DHT22;1003;48.002;7.788;2023-08-30T03:20:04;12.30;99.90
2002;DHT22;1003;48.002;7.788;2023-08-30T03:22:32;12.30;99.90
2002;DHT22;1003;48.002;7.788;2023-08-30T03:25:01;12.30;99.90
2002;DHT22;1003;48.002;7.788;2023-08-30T03:27:29;12.20;99.90
2002;DHT22;1003;48.002;7.788;2023-08-30T03:29:56;12.20;99.90
2002;DHT22;1003;48.002;7.788;2023-08-30T03:32:23;12.20;99.90
2002;DHT22;1003;48.002;7.788;2023-08-30T03:34:50;12.20;99.90
2002;DHT22;1003;48.002;7.788;2023-08-30T03:37:17;12.20;99.90
2002;DHT22;1003;48.002;7.788;2023-08-30T03:39:44;12.20;99.90
2002;DHT22;1003;48.002;7.788;2023-08-30T03:42:12;12.20;99.90
2002;DHT22;1003;48.002;7.788;2023-08-30T03:44:40;12.20;99.90
2002;DHT22;1003;48.002;7.788;2023-08-30T03:47:07;12.10;99.90
2002;DHT22;1003;48.002;7.788;2023-08-30T03:49:35;12.10;99.90
2002;DHT22;1003;48.002;7.788;2023-08-30T03:52:02;12.10;99.90
2002;DHT22;1003;48.002;7.788;2023-08-30T03:54:29;12.10;99.90
2002;DHT22;1003;48.002;7.788;2023-08-30T03:56:56;12.10;99.90
2002;DHT22;1003;48.002;7.788;2023-08-30T03:59:25;12.10;99.90
2002;DHT22;1003;48.002;7.788;2023-08-30T04:01:53;12.10;99.90
2002;DHT22;1003;48.002;7.788;2023-08-30T04:04:21;12.10;99.90
2002;DHT22;1003;48.002;7.788;2023-08-30T04:06:48;12.10;99.90
2002;DHT22;1003;48.002;7.788;2023-08-30T04:09:15;12.10;99.90
2002;DHT22;1003;48.002;7.788;2023-08-30T04:11:43;12.10;99.90
2002;DHT22;1003;48.002;7.788;2023-08-30T04:14:10;12.10;99.90
2002;DHT22;1003;48.002;7.788;2023-08-30T04:16:38;12.10;99.90
2002;DHT22;1003;48.002;7.788;2023-08-30T04:19:05;12.10;99.90
2002;DHT22;1003;48.002;7.788;2023-08-30T04:21:32;12.10;99.90
2002;DHT22;1003;48.002;7.788;2023-08-30T04:23:59;12.10;99.90
2002;DHT22;1003;48.002;7.788;2023-08-30T04:26:26;12.10;99.90
2002;DHT22;1003;48.002;7.788;2023-08-30T04:28:53;12.10;99.90
2002;DHT22;1003;48.002;7.788;2023-08-30T04:31:20;12.10;99.90
2002;DHT22;1003;48.002;7.788;2023-08-30T04:33:49;12.10;99.90
2002;DHT22;1003;48.002;7.788;2023-08-30T04:36:18;12.10;99.90
2002;DHT22;1003;48.002;7.788;2023-08-30T04:38:45;12.10;99.90
2002;DHT22;1003;48.002;7.788;2023-08-30T04:41:12;12.10;99.90
2002;DHT22;1003;48.002;7.788;2023-08-30T04:43:39;12.10;99.90
2002;DHT22;1003;48.002;7.788;2023-08-30T04:46:06;12.20;99.90
2002;DHT22;1003;48.002;7.788;2023-08-30T04:48:33;12.20;99.90
2002;DHT22;1003;48.002;7.788;2023-08-30T04:51:02;12.20;99.90
2002;DHT22;1003;48.002;7.788;2023-08-30T04:53:31;12.30;99.90
2002;DHT22;1003;48.002;7.788;2023-08-30T04:55:59;12.30;99.90
2002;DHT22;1003;48.002;7.788;2023-08-30T04:58:26;12.30;99.90
2002;DHT22;1003;48.002;7.788;2023-08-30T05:00:56;12.30;99.90
2002;DHT22;1003;48.002;7.788;2023-08-30T05:03:23;12.30;99.90
2002;DHT22;1003;48.002;7.788;2023-08-30T05:05:50;12.40;99.90
2002;DHT22;1003;48.002;7.788;2023-08-30T05:08:18;12.40;99.90
2002;DHT22;1003;48.002;7.788;2023-08-30T05:10:45;12.50;99.90
2002;DHT22;1003;48.002;7.788;2023-08-30T05:13:15;12.60;99.90
2002;DHT22;1003;48.002;7.788;2023-08-30T05:15:43;12.60;99.90
2002;DHT22;1003;48.002;7.788;2023-08-30T05:18:10;12.60;99.90
2002;DHT22;1003;48.002;7.788;2023-08-30T05:20:37;12.70;99.90
2002;DHT22;1003;48.002;7.788;2023-08-30T05:23:04;12.80;99.90
2002;DHT22;1003;48.002;7.788;2023-08-30T05:25:33;12.90;99.90
2002;DHT22;1003;48.002;7.788;2023-08-30T05:28:01;13.00;99.90
2002;DHT22;1003;48.002;7.788;2023-08-30T05:30:29;13.00;99.90
2002;DHT22;1003;48.002;7.788;2023-08-30T05:32:56;13.00;99.90
2002;DHT22;1003;48.002;7.788;2023-08-30T05:35:23;13.10;99.90
2002;DHT22;1003;48.002;7.788;2023-08-30T05:37:50;13.20;99.90
2002;DHT22;1003;48.002;7.788;2023-08-30T05:40:20;13.20;99.90
2002;DHT22;1003;48.002;7.788;2023-08-30T05:42:49;13.30;99.90
2002;DHT22;1003;48.002;7.788;2023-08-30T05:45:16;13.50;99.90
2002;DHT22;1003;48.002;7.788;2023-08-30T05:47:43;13.50;99.90
2002;DHT22;1003;48.002;7.788;2023-08-30T05:50:10;13.60;99.90
2002;DHT22;1003;48.002;7.788;2023-08-30T05:52:37;13.70;99.90
2002;DHT22;1003;48.002;7.788;2023-08-30T05:55:07;13.70;99.90
2002;DHT22;1003;48.002;7.788;2023-08-30T05:57:35;13.80;99.90
2002;DHT22;1003;48.002;7.788;2023-08-30T06:00:04;13.90;99.90
2002;DHT22;1003;48.002;7.788;2023-08-30T06:02:33;14.00;99.90
2002;DHT22;1003;48.002;7.788;2023-08-30T06:05:00;14.10;99.90
2002;DHT22;1003;48.002;7.788;2023-08-30T06:07:30;14.20;99.90
2002;DHT22;1003;48.002;7.788;2023-08-30T06:09:58;14.20;99.90
2002;DHT22;1003;48.002;7.788;2023-08-30T06:12:25;14.30;99.90
2002;DHT22;1003;48.002;7.788;2023-08-30T06:14:52;14.50;99.90
2002;DHT22;1003;48.002;7.788;2023-08-30T06:17:21;14.80;99.90
2002;DHT22;1003;48.002;7.788;2023-08-30T06:19:49;14.90;99.90
2002;DHT22;1003;48.002;7.788;2023-08-30T06:22:16;15.00;99.90
2002;DHT22;1003;48.002;7.788;2023-08-30T06:24:43;15.10;99.90
2002;DHT22;1003;48.002;7.788;2023-08-30T06:27:10;15.30;99.90
2002;DHT22;1003;48.002;7.788;2023-08-30T06:29:37;15.40;99.90
2002;DHT22;1003;48.002;7.788;2023-08-30T06:32:05;15.20;99.90
2002;DHT22;1003;48.002;7.788;2023-08-30T06:34:33;15.20;99.90
2002;DHT22;1003;48.002;7.788;2023-08-30T06:37:00;15.30;99.90
2002;DHT22;1003;48.002;7.788;2023-08-30T06:39:32;15.40;99.90
2002;DHT22;1003;48.002;7.788;2023-08-30T06:42:00;15.50;99.90
2002;DHT22;1003;48.002;7.788;2023-08-30T06:44:27;15.50;99.90
2002;DHT22;1003;48.002;7.788;2023-08-30T06:46:55;15.50;99.90
2002;DHT22;1003;48.002;7.788;2023-08-30T06:49:22;15.50;99.90
2002;DHT22;1003;48.002;7.788;2023-08-30T06:51:51;15.50;99.90
2002;DHT22;1003;48.002;7.788;2023-08-30T06:54:18;15.60;99.90
2002;DHT22;1003;48.002;7.788;2023-08-30T06:56:57;15.90;99.90
2002;DHT22;1003;48.002;7.788;2023-08-30T06:59:25;16.10;99.90
2002;DHT22;1003;48.002;7.788;2023-08-30T07:01:52;16.20;99.90
2002;DHT22;1003;48.002;7.788;2023-08-30T07:04:19;16.20;99.90
2002;DHT22;1003;48.002;7.788;2023-08-30T07:06:46;16.30;99.90
2002;DHT22;1003;48.002;7.788;2023-08-30T07:09:15;16.60;99.90
2002;DHT22;1003;48.002;7.788;2023-08-30T07:11:42;16.80;99.90
2002;DHT22;1003;48.002;7.788;2023-08-30T07:14:10;17.10;99.90
2002;DHT22;1003;48.002;7.788;2023-08-30T07:16:39;17.20;99.90
2002;DHT22;1003;48.002;7.788;2023-08-30T07:19:07;17.20;99.90
2002;DHT22;1003;48.002;7.788;2023-08-30T07:21:35;17.40;99.90
2002;DHT22;1003;48.002;7.788;2023-08-30T07:24:05;17.60;99.90
2002;DHT22;1003;48.002;7.788;2023-08-30T07:26:35;17.70;99.90
2002;DHT22;1003;48.002;7.788;2023-08-30T07:29:03;17.80;99.90
2002;DHT22;1003;48.002;7.788;2023-08-30T07:31:31;18.00;99.90
2002;DHT22;1003;48.002;7.788;2023-08-30T07:33:58;18.40;99.90
2002;DHT22;1003;48.002;7.788;2023-08-30T07:36:26;18.40;99.90
2002;DHT22;1003;48.002;7.788;2023-08-30T07:38:53;18.60;99.90
2002;DHT22;1003;48.002;7.788;2023-08-30T07:41:21;18.80;99.90
2002;DHT22;1003;48.002;7.788;2023-08-30T07:43:49;18.70;99.90
2002;DHT22;1003;48.002;7.788;2023-08-30T07:46:16;18.50;99.90
2002;DHT22;1003;48.002;7.788;2023-08-30T07:48:43;18.50;99.90
2002;DHT22;1003;48.002;7.788;2023-08-30T07:51:10;18.50;99.90
2002;DHT22;1003;48.002;7.788;2023-08-30T07:53:37;18.60;99.90
2002;DHT22;1003;48.002;7.788;2023-08-30T07:56:05;19.00;99.90
2002;DHT22;1003;48.002;7.788;2023-08-30T07:58:33;18.80;99.90
2002;DHT22;1003;48.002;7.788;2023-08-30T08:01:01;18.80;99.90
2002;DHT22;1003;48.002;7.788;2023-08-30T08:03:28;18.80;99.90
2002;DHT22;1003;48.002;7.788;2023-08-30T08:05:55;18.90;99.90
2002;DHT22;1003;48.002;7.788;2023-08-30T08:08:25;19.00;99.90
2002;DHT22;1003;48.002;7.788;2023-08-30T08:10:52;18.90;99.90
2002;DHT22;1003;48.002;7.788;2023-08-30T08:13:19;18.90;99.90
2002;DHT22;1003;48.002;7.788;2023-08-30T08:15:46;19.10;99.90
2002;DHT22;1003;48.002;7.788;2023-08-30T08:18:14;19.10;99.90
2002;DHT22;1003;48.002;7.788;2023-08-30T08:20:41;19.10;99.90
2002;DHT22;1003;48.002;7.788;2023-08-30T08:23:11;19.20;99.90
2002;DHT22;1003;48.002;7.788;2023-08-30T08:25:39;19.10;99.90
2002;DHT22;1003;48.002;7.788;2023-08-30T08:28:05;19.00;99.90
2002;DHT22;1003;48.002;7.788;2023-08-30T08:30:33;18.90;99.90
2002;DHT22;1003;48.002;7.788;2023-08-30T08:33:00;18.80;99.90
2002;DHT22;1003;48.002;7.788;2023-08-30T08:35:29;18.70;99.90
2002;DHT22;1003;48.002;7.788;2023-08-30T08:37:56;18.90;99.90
2002;DHT22;1003;48.002;7.788;2023-08-30T08:40:23;19.10;99.90
2002;DHT22;1003;48.002;7.788;2023-08-30T08:42:50;19.10;99.90
2002;DHT22;1003;48.002;7.788;2023-08-30T08:45:21;19.30;99.90
2002;DHT22;1003;48.002;7.788;2023-08-30T08:47:50;19.40;99.90
2002;DHT22;1003;48.002;7.788;2023-08-30T08:50:18;19.60;99.90
2002;DHT22;1003;48.002;7.788;2023-08-30T08:52:46;19.80;99.90
2002;DHT22;1003;48.002;7.788;2023-08-30T08:55:14;19.90;99.90
2002;DHT22;1003;48.002;7.788;2023-08-30T08:57:43;19.90;99.90
2002;DHT22;1003;48.002;7.788;2023-08-30T09:00:13;19.90;99.90
2002;DHT22;1003;48.002;7.788;2023-08-30T09:02:42;20.00;99.90
2002;DHT22;1003;48.002;7.788;2023-08-30T09:05:10;20.30;99.90
2002;DHT22;1003;48.002;7.788;2023-08-30T09:07:38;20.20;99.90
2002;DHT22;1003;48.002;7.788;2023-08-30T09:10:08;20.20;99.90
2002;DHT22;1003;48.002;7.788;2023-08-30T09:12:36;20.20;99.90
2002;DHT22;1003;48.002;7.788;2023-08-30T09:15:03;20.20;99.90
2002;DHT22;1003;48.002;7.788;2023-08-30T09:17:38;20.00;99.90
2002;DHT22;1003;48.002;7.788;2023-08-30T09:20:07;20.00;99.90
2002;DHT22;1003;48.002;7.788;2023-08-30T09:22:39;19.80;99.90
2002;DHT22;1003;48.002;7.788;2023-08-30T09:25:09;20.10;99.90
2002;DHT22;1003;48.002;7.788;2023-08-30T09:27:37;20.20;99.90
2002;DHT22;1003;48.002;7.788;2023-08-30T09:30:07;20.30;99.90
2002;DHT22;1003;48.002;7.788;2023-08-30T09:32:40;20.40;99.90
2002;DHT22;1003;48.002;7.788;2023-08-30T09:35:08;20.50;99.90
2002;DHT22;1003;48.002;7.788;2023-08-30T09:37:36;20.50;99.90
2002;DHT22;1003;48.002;7.788;2023-08-30T09:40:04;20.50;99.90
2002;DHT22;1003;48.002;7.788;2023-08-30T09:42:33;20.50;99.90
2002;DHT22;1003;48.002;7.788;2023-08-30T09:45:04;20.60;99.90
2002;DHT22;1003;48.002;7.788;2023-08-30T09:47:32;20.60;99.90
2002;DHT22;1003;48.002;7.788;2023-08-30T09:50:02;20.80;99.90
2002;DHT22;1003;48.002;7.788;2023-08-30T09:52:30;21.00;99.90
2002;DHT22;1003;48.002;7.788;2023-08-30T09:54:59;20.90;99.90
2002;DHT22;1003;48.002;7.788;2023-08-30T09:57:27;20.80;99.90
2002;DHT22;1003;48.002;7.788;2023-08-30T09:59:57;20.90;99.90
2002;DHT22;1003;48.002;7.788;2023-08-30T10:02:26;21.00;99.90
2002;DHT22;1003;48.002;7.788;2023-08-30T10:04:54;21.30;99.90
2002;DHT22;1003;48.002;7.788;2023-08-30T10:07:22;21.30;99.90
2002;DHT22;1003;48.002;7.788;2023-08-30T10:09:50;21.40;99.90
2002;DHT22;1003;48.002;7.788;2023-08-30T10:12:20;21.60;99.90
2002;DHT22;1003;48.002;7.788;2023-08-30T10:14:48;21.50;99.90
2002;DHT22;1003;48.002;7.788;2023-08-30T10:17:18;21.50;99.90
2002;DHT22;1003;48.002;7.788;2023-08-30T10:19:50;21.60;99.90
2002;DHT22;1003;48.002;7.788;2023-08-30T10:22:21;21.80;99.90
2002;DHT22;1003;48.002;7.788;2023-08-30T10:24:52;22.00;99.90
2002;DHT22;1003;48.002;7.788;2023-08-30T10:27:24;22.00;99.90
2002;DHT22;1003;48.002;7.788;2023-08-30T10:29:53;22.00;99.90
2002;DHT22;1003;48.002;7.788;2023-08-30T10:32:23;21.90;99.90
2002;DHT22;1003;48.002;7.788;2023-08-30T10:34:50;21.90;99.90
2002;DHT22;1003;48.002;7.788;2023-08-30T10:37:22;21.90;99.90
2002;DHT22;1003;48.002;7.788;2023-08-30T10:39:50;21.90;99.90
2002;DHT22;1003;48.002;7.788;2023-08-30T10:42:22;22.30;99.90
2002;DHT22;1003;48.002;7.788;2023-08-30T10:44:50;22.20;99.90
2002;DHT22;1003;48.002;7.788;2023-08-30T10:47:19;22.10;99.90
2002;DHT22;1003;48.002;7.788;2023-08-30T10:49:48;21.80;99.90
2002;DHT22;1003;48.002;7.788;2023-08-30T10:52:16;21.90;99.90
2002;DHT22;1003;48.002;7.788;2023-08-30T10:54:46;21.70;99.90
2002;DHT22;1003;48.002;7.788;2023-08-30T10:57:14;21.70;99.90
2002;DHT22;1003;48.002;7.788;2023-08-30T11:00:04;21.80;99.90
2002;DHT22;1003;48.002;7.788;2023-08-30T11:02:33;21.60;99.90
2002;DHT22;1003;48.002;7.788;2023-08-30T11:05:03;21.60;99.90
2002;DHT22;1003;48.002;7.788;2023-08-30T11:07:33;21.60;99.90
2002;DHT22;1003;48.002;7.788;2023-08-30T11:10:00;21.60;99.90
2002;DHT22;1003;48.002;7.788;2023-08-30T11:12:32;21.60;99.90
2002;DHT22;1003;48.002;7.788;2023-08-30T11:15:01;21.60;99.90
2002;DHT22;1003;48.002;7.788;2023-08-30T11:17:29;21.60;99.90
2002;DHT22;1003;48.002;7.788;2023-08-30T11:20:07;21.60;99.90
2002;DHT22;1003;48.002;7.788;2023-08-30T11:22:36;21.60;99.90
2002;DHT22;1003;48.002;7.788;2023-08-30T11:25:04;21.70;99.90
2002;DHT22;1003;48.002;7.788;2023-08-30T11:27:34;22.00;99.90
2002;DHT22;1003;48.002;7.788;2023-08-30T11:30:01;22.00;99.90
2002;DHT22;1003;48.002;7.788;2023-08-30T11:32:32;21.90;99.90
2002;DHT22;1003;48.002;7.788;2023-08-30T11:35:00;22.00;99.90
2002;DHT22;1003;48.002;7.788;2023-08-30T11:37:29;21.90;99.90
2002;DHT22;1003;48.002;7.788;2023-08-30T11:39:58;22.10;99.90
2002;DHT22;1003;48.002;7.788;2023-08-30T11:42:26;22.10;99.90
2002;DHT22;1003;48.002;7.788;2023-08-30T11:44:53;22.10;99.90
2002;DHT22;1003;48.002;7.788;2023-08-30T11:47:22;21.90;99.90
2002;DHT22;1003;48.002;7.788;2023-08-30T11:49:50;21.90;99.90
2002;DHT22;1003;48.002;7.788;2023-08-30T11:52:20;22.10;99.90
2002;DHT22;1003;48.002;7.788;2023-08-30T11:54:50;22.20;99.90
2002;DHT22;1003;48.002;7.788;2023-08-30T11:57:18;22.30;99.90
2002;DHT22;1003;48.002;7.788;2023-08-30T11:59:46;22.50;99.90
2002;DHT22;1003;48.002;7.788;2023-08-30T12:02:16;22.30;99.90
2002;DHT22;1003;48.002;7.788;2023-08-30T12:04:45;22.30;99.90
2002;DHT22;1003;48.002;7.788;2023-08-30T12:07:21;22.40;99.90
2002;DHT22;1003;48.002;7.788;2023-08-30T12:09:50;22.50;99.90
2002;DHT22;1003;48.002;7.788;2023-08-30T12:12:18;22.60;99.90
2002;DHT22;1003;48.002;7.788;2023-08-30T12:14:46;22.70;99.90
2002;DHT22;1003;48.002;7.788;2023-08-30T12:17:22;22.60;99.90
2002;DHT22;1003;48.002;7.788;2023-08-30T12:19:55;22.60;99.90
2002;DHT22;1003;48.002;7.788;2023-08-30T12:22:22;22.60;99.90
2002;DHT22;1003;48.002;7.788;2023-08-30T12:24:51;22.50;99.90
2002;DHT22;1003;48.002;7.788;2023-08-30T12:27:18;22.40;99.90
2002;DHT22;1003;48.002;7.788;2023-08-30T12:29:45;22.20;99.90
2002;DHT22;1003;48.002;7.788;2023-08-30T12:32:12;22.00;99.90
2002;DHT22;1003;48.002;7.788;2023-08-30T12:34:39;21.80;99.90
2002;DHT22;1003;48.002;7.788;2023-08-30T12:37:06;21.80;99.90
2002;DHT22;1003;48.002;7.788;2023-08-30T12:39:33;21.80;99.90
2002;DHT22;1003;48.002;7.788;2023-08-30T12:42:02;22.00;99.90
2002;DHT22;1003;48.002;7.788;2023-08-30T12:44:30;22.30;99.90
2002;DHT22;1003;48.002;7.788;2023-08-30T12:46:57;22.50;99.90
2002;DHT22;1003;48.002;7.788;2023-08-30T12:49:24;22.50;99.90
2002;DHT22;1003;48.002;7.788;2023-08-30T12:51:51;22.60;99.90
2002;DHT22;1003;48.002;7.788;2023-08-30T12:54:18;22.80;99.90
2002;DHT22;1003;48.002;7.788;2023-08-30T12:56:45;23.00;99.90
2002;DHT22;1003;48.002;7.788;2023-08-30T12:59:13;22.90;99.90
2002;DHT22;1003;48.002;7.788;2023-08-30T13:01:40;22.90;99.90
2002;DHT22;1003;48.002;7.788;2023-08-30T13:04:08;22.90;99.90
2002;DHT22;1003;48.002;7.788;2023-08-30T13:06:35;23.00;99.90
2002;DHT22;1003;48.002;7.788;2023-08-30T13:09:02;22.70;99.90
2002;DHT22;1003;48.002;7.788;2023-08-30T13:11:29;22.60;99.90
2002;DHT22;1003;48.002;7.788;2023-08-30T13:13:58;22.50;99.90
2002;DHT22;1003;48.002;7.788;2023-08-30T13:16:26;22.60;99.90
2002;DHT22;1003;48.002;7.788;2023-08-30T13:18:52;22.60;99.90
2002;DHT22;1003;48.002;7.788;2023-08-30T13:21:19;22.60;99.90
2002;DHT22;1003;48.002;7.788;2023-08-30T13:23:46;22.50;99.90
2002;DHT22;1003;48.002;7.788;2023-08-30T13:26:13;22.50;99.90
2002;DHT22;1003;48.002;7.788;2023-08-30T13:28:40;22.60;99.90
2002;DHT22;1003;48.002;7.788;2023-08-30T13:31:07;22.60;99.90
2002;DHT22;1003;48.002;7.788;2023-08-30T13:33:36;22.60;99.90
2002;DHT22;1003;48.002;7.788;2023-08-30T13:36:03;22.60;99.90
2002;DHT22;1003;48.002;7.788;2023-08-30T13:38:31;22.80;99.90
2002;DHT22;1003;48.002;7.788;2023-08-30T13:40:58;23.10;99.90
2002;DHT22;1003;48.002;7.788;2023-08-30T13:43:26;23.10;99.90
2002;DHT22;1003;48.002;7.788;2023-08-30T13:45:57;23.30;99.90
2002;DHT22;1003;48.002;7.788;2023-08-30T13:48:24;23.30;99.90
2002;DHT22;1003;48.002;7.788;2023-08-30T13:50:53;23.30;99.90
2002;DHT22;1003;48.002;7.788;2023-08-30T13:53:20;23.00;99.90
2002;DHT22;1003;48.002;7.788;2023-08-30T13:55:47;23.00;99.90
2002;DHT22;1003;48.002;7.788;2023-08-30T13:58:15;23.00;99.90
2002;DHT22;1003;48.002;7.788;2023-08-30T14:00:42;22.90;99.90
2002;DHT22;1003;48.002;7.788;2023-08-30T14:03:10;22.70;99.90
2002;DHT22;1003;48.002;7.788;2023-08-30T14:05:37;22.40;99.90
2002;DHT22;1003;48.002;7.788;2023-08-30T14:08:07;22.20;99.90
2002;DHT22;1003;48.002;7.788;2023-08-30T14:10:34;22.00;99.90
2002;DHT22;1003;48.002;7.788;2023-08-30T14:13:04;22.10;99.90
2002;DHT22;1003;48.002;7.788;2023-08-30T14:15:31;22.10;99.90
2002;DHT22;1003;48.002;7.788;2023-08-30T14:17:58;22.10;99.90
2002;DHT22;1003;48.002;7.788;2023-08-30T14:20:25;22.00;99.90
2002;DHT22;1003;48.002;7.788;2023-08-30T14:22:52;21.90;99.90
2002;DHT22;1003;48.002;7.788;2023-08-30T14:25:21;21.80;99.90
2002;DHT22;1003;48.002;7.788;2023-08-30T14:27:48;21.70;99.90
2002;DHT22;1003;48.002;7.788;2023-08-30T14:30:15;21.60;99.90
2002;DHT22;1003;48.002;7.788;2023-08-30T14:32:45;21.50;99.90
2002;DHT22;1003;48.002;7.788;2023-08-30T14:35:12;21.50;99.90
2002;DHT22;1003;48.002;7.788;2023-08-30T14:37:39;21.50;99.90
2002;DHT22;1003;48.002;7.788;2023-08-30T14:40:07;21.40;99.90
2002;DHT22;1003;48.002;7.788;2023-08-30T14:42:36;21.40;99.90
2002;DHT22;1003;48.002;7.788;2023-08-30T14:45:04;21.50;99.90
2002;DHT22;1003;48.002;7.788;2023-08-30T14:47:32;21.50;99.90
2002;DHT22;1003;48.002;7.788;2023-08-30T14:50:00;21.50;99.90
2002;DHT22;1003;48.002;7.788;2023-08-30T14:52:28;21.50;99.90
2002;DHT22;1003;48.002;7.788;2023-08-30T14:54:56;21.60;99.90
2002;DHT22;1003;48.002;7.788;2023-08-30T14:57:23;21.60;99.90
2002;DHT22;1003;48.002;7.788;2023-08-30T14:59:52;21.70;99.90
2002;DHT22;1003;48.002;7.788;2023-08-30T15:02:19;21.70;99.90
2002;DHT22;1003;48.002;7.788;2023-08-30T15:04:47;21.90;99.90
2002;DHT22;1003;48.002;7.788;2023-08-30T15:07:17;22.00;99.90
2002;DHT22;1003;48.002;7.788;2023-08-30T15:09:44;22.10;99.90
2002;DHT22;1003;48.002;7.788;2023-08-30T15:12:11;22.10;99.90
2002;DHT22;1003;48.002;7.788;2023-08-30T15:14:38;21.90;99.90
2002;DHT22;1003;48.002;7.788;2023-08-30T15:17:09;21.90;99.90
2002;DHT22;1003;48.002;7.788;2023-08-30T15:19:36;21.80;99.90
2002;DHT22;1003;48.002;7.788;2023-08-30T15:22:03;21.70;99.90
2002;DHT22;1003;48.002;7.788;2023-08-30T15:24:30;21.80;99.90
2002;DHT22;1003;48.002;7.788;2023-08-30T15:26:57;21.90;99.90
2002;DHT22;1003;48.002;7.788;2023-08-30T15:29:24;22.00;99.90
2002;DHT22;1003;48.002;7.788;2023-08-30T15:31:51;22.10;99.90
2002;DHT22;1003;48.002;7.788;2023-08-30T15:34:20;22.00;99.90
2002;DHT22;1003;48.002;7.788;2023-08-30T15:36:47;21.90;99.90
2002;DHT22;1003;48.002;7.788;2023-08-30T15:39:14;22.00;99.90
2002;DHT22;1003;48.002;7.788;2023-08-30T15:41:42;22.10;99.90
2002;DHT22;1003;48.002;7.788;2023-08-30T15:44:10;22.00;99.90
2002;DHT22;1003;48.002;7.788;2023-08-30T15:46:37;22.10;99.90
2002;DHT22;1003;48.002;7.788;2023-08-30T15:49:04;22.10;99.90
2002;DHT22;1003;48.002;7.788;2023-08-30T15:51:33;22.10;99.90
2002;DHT22;1003;48.002;7.788;2023-08-30T15:54:00;22.20;99.90
2002;DHT22;1003;48.002;7.788;2023-08-30T15:56:27;22.10;99.90
2002;DHT22;1003;48.002;7.788;2023-08-30T15:58:54;22.10;99.90
2002;DHT22;1003;48.002;7.788;2023-08-30T16:01:24;22.10;99.90
2002;DHT22;1003;48.002;7.788;2023-08-30T16:03:53;22.10;99.90
2002;DHT22;1003;48.002;7.788;2023-08-30T16:06:27;22.00;99.90
2002;DHT22;1003;48.002;7.788;2023-08-30T16:08:55;21.90;99.90